Share

Sylvania, GA

6:08 PM EDT on April 24, 2014 (GMT -0400)
Plantation (KJYL) Elev 187 ft | 32.65 °N, 81.60 °W | Change Station
Active Advisory: Flood Warning

Current weather conditions updated 13 minutes ago

Mostly Cloudy
Mostly Cloudy
78 °F
Feels Like 78 °F
N
7
Wind Variable Wind from SE
Sunrise 6:46 AM
Sunset 8:03 PM
Moon Waning Crescent

Tomorrow is forecast to be nearly the same temperature as today.

Pressure 29.97 in
Visibility 10.0 miles
Clouds Scattered Clouds 8000 ft
Mostly Cloudy 9000 ft
Dew Point 60 °F
Humidity 54%
Rainfall 0.00 in
Snow Depth Not available.
UV 1 out of 16
Pollen 8.90 out of 12
Air Quality Not available.
Flu Activity Sporadic
METAR KJYL 242155Z AUTO 14006KT 10SM SCT080 BKN090 26/16 A2997 RMK AO2 T02560158

More Conditions Fewer Conditions

Pressure 29.97 in
Visibility 10.0 miles
Clouds Scattered Clouds 8000 ft
Mostly Cloudy 9000 ft
Dew Point 60 °F
Humidity 54%
Rainfall 0.00 in
Snow Depth Not available.
UV 1 out of 16
Pollen 8.90 out of 12
Air Quality Not available.
Flu Activity Sporadic
METAR KJYL 242155Z AUTO 14006KT 10SM SCT080 BKN090 26/16 A2997 RMK AO2 T02560158

More Conditions Fewer Conditions

10-Day Weather Forecast

Almanac

Astronomy

Apr. 24, 2014 Rise Set
Actual Time 6:46 AM EDT 8:03 PM EDT
Civil Twilight 6:20 AM EDT 8:29 PM EDT
Nautical Twilight 5:50 AM EDT 8:59 PM EDT
Astronomical Twilight 5:18 AM EDT 9:32 PM EDT
Moon 3:40 AM EDT 3:32 PM EDT
Length of Visible Light 14h 08m
Length of Day
13h 16m
Tomorrow will be 1m 49s longer.
Waning Crescent, 22% of the Moon is Illuminated
Today
Waning Crescent
Apr 29
New
May 6
First Quarter
May 14
Full
May 21
Last Quarter

Today's Extremes

State Highs State Lows

Community

  • Jone Runs Falls
    Jone Runs Falls
  • Sunset at Apalachicola Bay, Florida
    Sunset at Apalachicola Bay, Florida
  • Clouds mov'n in
    Clouds mov'n in
  • Stacked
    Stacked
  • clouds approaching Red Sox Nation
    clouds approaching Red Sox Nation

WunderPhotos

Upload Photos

1,704,727 photos uploaded!

Nearby

Snow Depth

Station Depth Elevation
No new snow has been reported.

Coastal Water Temperatures

Place Temperature
No Stations Reporting

Earthquake Activity

City Distance Mag. Time & Date
No recent earthquake activity has been reported nearby.
Minimum magnitude displayed is 2.5.

Nearby Weather Stations

There are no personal weather stations in this area.

What do you think?

We're not finished. Please let us know what you like, what you don't like, and what you are still missing.